sensor_id;sensor_type;location;lat;lon;timestamp;pressure;altitude;pressure_sealevel;temperature;humidity
20119;BME280;10220;42.716;23.306;2024-03-23T00:54:56;95357.63;;;5.97;100.00
20119;BME280;10220;42.716;23.306;2024-03-23T00:57:21;95353.38;;;5.89;100.00
20119;BME280;10220;42.716;23.306;2024-03-23T00:59:47;95353.50;;;5.88;100.00
20119;BME280;10220;42.716;23.306;2024-03-23T01:02:12;95351.69;;;5.28;100.00
20119;BME280;10220;42.716;23.306;2024-03-23T01:04:37;95353.41;;;4.89;100.00
20119;BME280;10220;42.716;23.306;2024-03-23T01:07:06;95353.44;;;4.81;100.00
20119;BME280;10220;42.716;23.306;2024-03-23T01:09:31;95341.44;;;5.66;100.00
20119;BME280;10220;42.716;23.306;2024-03-23T01:11:57;95348.53;;;7.19;100.00
20119;BME280;10220;42.716;23.306;2024-03-23T01:14:22;95347.44;;;7.57;100.00
20119;BME280;10220;42.716;23.306;2024-03-23T01:16:48;95336.56;;;7.26;100.00
20119;BME280;10220;42.716;23.306;2024-03-23T01:19:13;95344.41;;;7.67;100.00
20119;BME280;10220;42.716;23.306;2024-03-23T01:21:38;95337.78;;;7.44;100.00
20119;BME280;10220;42.716;23.306;2024-03-23T01:24:04;95344.88;;;7.28;100.00
20119;BME280;10220;42.716;23.306;2024-03-23T01:26:30;95345.31;;;5.92;100.00
20119;BME280;10220;42.716;23.306;2024-03-23T01:28:55;95363.84;;;5.42;100.00
20119;BME280;10220;42.716;23.306;2024-03-23T01:31:20;95353.69;;;5.18;100.00
20119;BME280;10220;42.716;23.306;2024-03-23T01:33:46;95330.03;;;5.30;100.00
20119;BME280;10220;42.716;23.306;2024-03-23T01:36:11;95361.50;;;4.63;100.00
20119;BME280;10220;42.716;23.306;2024-03-23T01:38:37;95364.53;;;4.74;100.00
20119;BME280;10220;42.716;23.306;2024-03-23T01:41:02;95343.41;;;4.48;100.00
20119;BME280;10220;42.716;23.306;2024-03-23T01:43:28;95343.41;;;4.40;100.00
20119;BME280;10220;42.716;23.306;2024-03-23T01:45:53;95343.31;;;4.88;100.00
20119;BME280;10220;42.716;23.306;2024-03-23T01:48:20;95342.63;;;5.86;100.00
20119;BME280;10220;42.716;23.306;2024-03-23T01:50:46;95336.06;;;6.06;100.00
20119;BME280;10220;42.716;23.306;2024-03-23T01:53:14;95324.28;;;5.59;100.00
20119;BME280;10220;42.716;23.306;2024-03-23T01:55:43;95346.53;;;4.98;100.00
20119;BME280;10220;42.716;23.306;2024-03-23T01:58:08;95341.91;;;5.31;100.00
20119;BME280;10220;42.716;23.306;2024-03-23T02:00:33;95322.94;;;5.40;100.00
20119;BME280;10220;42.716;23.306;2024-03-23T02:02:59;95350.81;;;6.12;100.00
20119;BME280;10220;42.716;23.306;2024-03-23T02:05:25;95354.91;;;6.94;100.00
20119;BME280;10220;42.716;23.306;2024-03-23T02:07:50;95338.41;;;7.03;100.00
20119;BME280;10220;42.716;23.306;2024-03-23T02:10:16;95348.69;;;6.89;100.00
20119;BME280;10220;42.716;23.306;2024-03-23T02:12:41;95328.69;;;5.42;100.00
20119;BME280;10220;42.716;23.306;2024-03-23T02:15:07;95352.56;;;6.70;100.00
20119;BME280;10220;42.716;23.306;2024-03-23T02:17:36;95339.81;;;7.20;100.00
20119;BME280;10220;42.716;23.306;2024-03-23T02:20:02;95344.19;;;7.34;100.00
20119;BME280;10220;42.716;23.306;2024-03-23T02:22:36;95354.81;;;7.45;100.00
20119;BME280;10220;42.716;23.306;2024-03-23T02:25:03;95350.56;;;7.87;100.00
20119;BME280;10220;42.716;23.306;2024-03-23T02:27:29;95356.53;;;7.88;100.00
20119;BME280;10220;42.716;23.306;2024-03-23T02:29:55;95349.78;;;7.72;100.00
20119;BME280;10220;42.716;23.306;2024-03-23T02:32:20;95357.38;;;6.88;100.00
20119;BME280;10220;42.716;23.306;2024-03-23T02:34:46;95362.72;;;7.44;100.00
20119;BME280;10220;42.716;23.306;2024-03-23T02:37:11;95328.34;;;7.86;100.00
20119;BME280;10220;42.716;23.306;2024-03-23T02:39:37;95357.00;;;7.77;100.00
20119;BME280;10220;42.716;23.306;2024-03-23T02:42:03;95343.56;;;7.81;100.00
20119;BME280;10220;42.716;23.306;2024-03-23T02:44:28;95354.16;;;8.07;100.00
20119;BME280;10220;42.716;23.306;2024-03-23T02:46:54;95344.66;;;7.93;100.00
20119;BME280;10220;42.716;23.306;2024-03-23T02:49:19;95349.50;;;7.03;100.00
20119;BME280;10220;42.716;23.306;2024-03-23T02:51:46;95355.09;;;7.36;100.00
20119;BME280;10220;42.716;23.306;2024-03-23T02:54:13;95332.16;;;7.41;100.00
20119;BME280;10220;42.716;23.306;2024-03-23T02:56:39;95329.16;;;7.72;100.00
20119;BME280;10220;42.716;23.306;2024-03-23T02:59:04;95348.09;;;7.30;100.00
20119;BME280;10220;42.716;23.306;2024-03-23T03:01:30;95345.31;;;5.92;100.00
20119;BME280;10220;42.716;23.306;2024-03-23T03:03:55;95348.59;;;6.97;100.00
20119;BME280;10220;42.716;23.306;2024-03-23T03:06:25;95350.28;;;7.47;100.00
20119;BME280;10220;42.716;23.306;2024-03-23T03:08:50;95344.09;;;5.81;100.00
20119;BME280;10220;42.716;23.306;2024-03-23T03:11:16;95351.78;;;6.84;100.00
20119;BME280;10220;42.716;23.306;2024-03-23T03:13:41;95338.59;;;7.16;100.00
20119;BME280;10220;42.716;23.306;2024-03-23T03:16:10;95340.16;;;7.46;100.00
20119;BME280;10220;42.716;23.306;2024-03-23T03:18:36;95347.00;;;7.39;100.00
20119;BME280;10220;42.716;23.306;2024-03-23T03:21:01;95308.19;;;5.95;100.00
20119;BME280;10220;42.716;23.306;2024-03-23T03:23:27;95338.06;;;6.55;100.00
20119;BME280;10220;42.716;23.306;2024-03-23T03:26:22;95342.91;;;7.15;100.00
20119;BME280;10220;42.716;23.306;2024-03-23T03:28:48;95352.06;;;6.89;100.00
20119;BME280;10220;42.716;23.306;2024-03-23T03:31:17;95359.69;;;6.97;100.00
20119;BME280;10220;42.716;23.306;2024-03-23T03:33:44;95350.06;;;6.62;100.00
20119;BME280;10220;42.716;23.306;2024-03-23T03:36:09;95358.25;;;6.80;100.00
20119;BME280;10220;42.716;23.306;2024-03-23T03:38:35;95348.34;;;7.06;100.00
20119;BME280;10220;42.716;23.306;2024-03-23T03:41:01;95339.59;;;5.75;100.00
20119;BME280;10220;42.716;23.306;2024-03-23T03:43:27;95359.75;;;6.38;100.00
20119;BME280;10220;42.716;23.306;2024-03-23T03:45:53;95351.63;;;6.86;100.00
20119;BME280;10220;42.716;23.306;2024-03-23T03:48:19;95344.03;;;6.70;100.00
20119;BME280;10220;42.716;23.306;2024-03-23T03:50:44;95348.06;;;7.15;100.00
20119;BME280;10220;42.716;23.306;2024-03-23T03:53:10;95317.63;;;7.04;100.00
20119;BME280;10220;42.716;23.306;2024-03-23T03:55:37;95350.41;;;6.96;100.00
20119;BME280;10220;42.716;23.306;2024-03-23T03:58:02;95337.84;;;7.22;100.00
20119;BME280;10220;42.716;23.306;2024-03-23T04:00:28;95331.72;;;7.37;100.00
20119;BME280;10220;42.716;23.306;2024-03-23T04:02:53;95323.63;;;7.55;100.00
20119;BME280;10220;42.716;23.306;2024-03-23T04:05:19;95341.84;;;7.39;100.00
20119;BME280;10220;42.716;23.306;2024-03-23T04:07:45;95347.78;;;7.68;100.00
20119;BME280;10220;42.716;23.306;2024-03-23T04:10:10;95353.34;;;7.86;100.00
20119;BME280;10220;42.716;23.306;2024-03-23T04:12:36;95353.53;;;7.70;100.00
20119;BME280;10220;42.716;23.306;2024-03-23T04:15:02;95360.03;;;7.66;100.00
20119;BME280;10220;42.716;23.306;2024-03-23T04:17:29;95349.63;;;7.74;100.00
20119;BME280;10220;42.716;23.306;2024-03-23T04:19:57;95347.75;;;6.31;100.00
20119;BME280;10220;42.716;23.306;2024-03-23T04:22:23;95356.91;;;5.88;100.00
20119;BME280;10220;42.716;23.306;2024-03-23T04:24:55;95355.53;;;5.70;100.00
20119;BME280;10220;42.716;23.306;2024-03-23T04:27:21;95360.84;;;5.99;100.00
20119;BME280;10220;42.716;23.306;2024-03-23T04:29:48;95371.69;;;6.09;100.00
20119;BME280;10220;42.716;23.306;2024-03-23T04:32:14;95361.66;;;6.22;100.00
20119;BME280;10220;42.716;23.306;2024-03-23T04:34:40;95361.22;;;5.88;100.00
20119;BME280;10220;42.716;23.306;2024-03-23T04:37:05;95369.94;;;4.95;100.00
20119;BME280;10220;42.716;23.306;2024-03-23T04:39:31;95369.19;;;5.24;100.00
20119;BME280;10220;42.716;23.306;2024-03-23T04:41:56;95366.34;;;5.20;100.00
20119;BME280;10220;42.716;23.306;2024-03-23T04:44:22;95384.78;;;5.15;100.00
20119;BME280;10220;42.716;23.306;2024-03-23T04:46:47;95372.06;;;5.76;100.00
20119;BME280;10220;42.716;23.306;2024-03-23T04:49:13;95341.44;;;6.55;100.00
20119;BME280;10220;42.716;23.306;2024-03-23T04:51:38;95375.53;;;7.23;100.00
20119;BME280;10220;42.716;23.306;2024-03-23T04:54:04;95369.50;;;7.30;100.00
20119;BME280;10220;42.716;23.306;2024-03-23T04:56:31;95376.31;;;7.66;100.00
20119;BME280;10220;42.716;23.306;2024-03-23T04:59:15;95374.00;;;6.99;100.00
20119;BME280;10220;42.716;23.306;2024-03-23T05:01:40;95362.53;;;6.14;100.00
20119;BME280;10220;42.716;23.306;2024-03-23T05:04:07;95381.78;;;6.77;100.00
20119;BME280;10220;42.716;23.306;2024-03-23T05:06:33;95374.44;;;6.52;100.00
20119;BME280;10220;42.716;23.306;2024-03-23T05:08:59;95367.53;;;6.08;100.00
20119;BME280;10220;42.716;23.306;2024-03-23T05:11:25;95376.03;;;5.86;100.00
20119;BME280;10220;42.716;23.306;2024-03-23T05:13:50;95372.91;;;5.14;100.00
20119;BME280;10220;42.716;23.306;2024-03-23T05:16:16;95369.69;;;4.50;100.00
20119;BME280;10220;42.716;23.306;2024-03-23T05:18:41;95386.94;;;4.88;100.00
20119;BME280;10220;42.716;23.306;2024-03-23T05:21:07;95358.63;;;4.58;100.00
20119;BME280;10220;42.716;23.306;2024-03-23T05:23:32;95360.28;;;5.05;100.00
20119;BME280;10220;42.716;23.306;2024-03-23T05:25:58;95377.66;;;5.79;100.00
20119;BME280;10220;42.716;23.306;2024-03-23T05:28:23;95359.81;;;6.30;100.00
20119;BME280;10220;42.716;23.306;2024-03-23T05:30:55;95353.31;;;6.20;100.00
20119;BME280;10220;42.716;23.306;2024-03-23T05:33:22;95364.22;;;6.81;100.00
20119;BME280;10220;42.716;23.306;2024-03-23T05:35:56;95370.34;;;6.80;100.00
20119;BME280;10220;42.716;23.306;2024-03-23T05:38:22;95370.03;;;6.60;100.00
20119;BME280;10220;42.716;23.306;2024-03-23T05:40:57;95378.00;;;5.76;100.00
20119;BME280;10220;42.716;23.306;2024-03-23T05:43:23;95377.25;;;6.20;100.00
20119;BME280;10220;42.716;23.306;2024-03-23T05:45:56;95363.09;;;6.98;100.00
20119;BME280;10220;42.716;23.306;2024-03-23T05:48:22;95371.75;;;6.82;100.00
20119;BME280;10220;42.716;23.306;2024-03-23T05:50:49;95370.19;;;7.24;100.00
20119;BME280;10220;42.716;23.306;2024-03-23T05:53:15;95356.41;;;6.89;97.04
20119;BME280;10220;42.716;23.306;2024-03-23T05:55:41;95362.81;;;6.42;100.00
20119;BME280;10220;42.716;23.306;2024-03-23T05:58:07;95377.50;;;7.21;100.00
20119;BME280;10220;42.716;23.306;2024-03-23T06:00:32;95375.34;;;7.10;100.00
20119;BME280;10220;42.716;23.306;2024-03-23T06:02:58;95366.38;;;7.06;100.00
20119;BME280;10220;42.716;23.306;2024-03-23T06:05:23;95362.66;;;7.87;100.00
20119;BME280;10220;42.716;23.306;2024-03-23T06:07:49;95358.53;;;8.07;95.93
20119;BME280;10220;42.716;23.306;2024-03-23T06:10:15;95347.84;;;8.99;92.45
20119;BME280;10220;42.716;23.306;2024-03-23T06:12:41;95358.16;;;8.72;92.44
20119;BME280;10220;42.716;23.306;2024-03-23T06:15:07;95329.13;;;8.64;89.80
20119;BME280;10220;42.716;23.306;2024-03-23T06:17:36;95356.41;;;9.00;88.75
20119;BME280;10220;42.716;23.306;2024-03-23T06:20:02;95350.38;;;8.24;87.59
20119;BME280;10220;42.716;23.306;2024-03-23T06:22:27;95354.06;;;8.36;90.67
20119;BME280;10220;42.716;23.306;2024-03-23T06:24:53;95351.94;;;8.04;86.99
20119;BME280;10220;42.716;23.306;2024-03-23T06:27:18;95350.19;;;7.90;95.06
20119;BME280;10220;42.716;23.306;2024-03-23T06:29:44;95350.44;;;9.33;87.45
20119;BME280;10220;42.716;23.306;2024-03-23T06:32:09;95338.66;;;8.97;83.71
20119;BME280;10220;42.716;23.306;2024-03-23T06:34:35;95354.03;;;8.77;84.32
20119;BME280;10220;42.716;23.306;2024-03-23T06:37:00;95352.00;;;8.25;92.97
20119;BME280;10220;42.716;23.306;2024-03-23T06:39:26;95339.97;;;8.59;90.45
20119;BME280;10220;42.716;23.306;2024-03-23T06:41:52;95346.13;;;9.13;87.13
20119;BME280;10220;42.716;23.306;2024-03-23T06:44:19;95352.97;;;8.45;88.08
20119;BME280;10220;42.716;23.306;2024-03-23T06:46:45;95345.88;;;9.35;85.98
20119;BME280;10220;42.716;23.306;2024-03-23T06:49:10;95339.13;;;9.81;79.74
20119;BME280;10220;42.716;23.306;2024-03-23T06:51:36;95340.63;;;10.02;78.69
20119;BME280;10220;42.716;23.306;2024-03-23T06:54:03;95339.28;;;8.23;86.65
20119;BME280;10220;42.716;23.306;2024-03-23T06:56:29;95343.34;;;8.32;93.87
20119;BME280;10220;42.716;23.306;2024-03-23T06:58:56;95345.16;;;8.86;90.78
20119;BME280;10220;42.716;23.306;2024-03-23T07:01:21;95344.75;;;9.50;90.67
20119;BME280;10220;42.716;23.306;2024-03-23T07:03:47;95336.72;;;9.73;81.43
20119;BME280;10220;42.716;23.306;2024-03-23T07:06:12;95332.72;;;10.23;79.76
20119;BME280;10220;42.716;23.306;2024-03-23T07:08:38;95336.31;;;10.87;77.32
20119;BME280;10220;42.716;23.306;2024-03-23T07:11:03;95329.34;;;10.68;76.12
20119;BME280;10220;42.716;23.306;2024-03-23T07:13:30;95324.00;;;9.84;75.44
20119;BME280;10220;42.716;23.306;2024-03-23T07:15:55;95326.56;;;10.56;77.27
20119;BME280;10220;42.716;23.306;2024-03-23T07:18:23;95322.97;;;10.77;75.87
20119;BME280;10220;42.716;23.306;2024-03-23T07:20:53;95326.19;;;11.74;70.04
20119;BME280;10220;42.716;23.306;2024-03-23T07:23:19;95311.13;;;11.89;63.87
20119;BME280;10220;42.716;23.306;2024-03-23T07:25:44;95303.50;;;11.50;63.05
20119;BME280;10220;42.716;23.306;2024-03-23T07:28:10;95308.69;;;11.37;62.62
20119;BME280;10220;42.716;23.306;2024-03-23T07:30:36;95318.81;;;11.65;62.05
20119;BME280;10220;42.716;23.306;2024-03-23T07:33:01;95304.75;;;11.91;63.50
20119;BME280;10220;42.716;23.306;2024-03-23T07:35:26;95302.13;;;11.91;62.19
20119;BME280;10220;42.716;23.306;2024-03-23T07:37:52;95299.88;;;12.63;61.79
20119;BME280;10220;42.716;23.306;2024-03-23T07:40:20;95303.97;;;13.01;58.77
20119;BME280;10220;42.716;23.306;2024-03-23T07:42:46;95303.59;;;13.57;57.73
20119;BME280;10220;42.716;23.306;2024-03-23T07:45:12;95306.69;;;13.66;57.43
20119;BME280;10220;42.716;23.306;2024-03-23T07:47:37;95302.28;;;13.31;58.02
20119;BME280;10220;42.716;23.306;2024-03-23T07:50:03;95297.44;;;12.68;57.16
20119;BME280;10220;42.716;23.306;2024-03-23T07:52:29;95283.97;;;11.91;61.80
20119;BME280;10220;42.716;23.306;2024-03-23T07:54:54;95286.38;;;12.54;60.06
20119;BME280;10220;42.716;23.306;2024-03-23T07:57:20;95281.72;;;12.32;59.58
20119;BME280;10220;42.716;23.306;2024-03-23T07:59:45;95284.31;;;12.87;61.02
20119;BME280;10220;42.716;23.306;2024-03-23T08:02:11;95299.53;;;12.53;59.83
20119;BME280;10220;42.716;23.306;2024-03-23T08:04:36;95290.22;;;13.18;58.78
20119;BME280;10220;42.716;23.306;2024-03-23T08:07:02;95294.88;;;12.92;57.45
20119;BME280;10220;42.716;23.306;2024-03-23T08:09:27;95259.22;;;11.89;58.72
20119;BME280;10220;42.716;23.306;2024-03-23T08:11:53;95285.78;;;11.91;58.16
20119;BME280;10220;42.716;23.306;2024-03-23T08:14:18;95296.59;;;11.81;65.11
20119;BME280;10220;42.716;23.306;2024-03-23T08:16:45;95275.38;;;12.52;62.53
20119;BME280;10220;42.716;23.306;2024-03-23T08:19:14;95280.06;;;12.92;60.87
20119;BME280;10220;42.716;23.306;2024-03-23T08:21:40;95288.69;;;12.38;62.64
20119;BME280;10220;42.716;23.306;2024-03-23T08:24:05;95283.19;;;12.22;59.17
20119;BME280;10220;42.716;23.306;2024-03-23T08:26:31;95276.06;;;12.11;59.29
20119;BME280;10220;42.716;23.306;2024-03-23T08:28:56;95272.91;;;12.33;63.33
20119;BME280;10220;42.716;23.306;2024-03-23T08:31:22;95258.19;;;12.76;58.75
20119;BME280;10220;42.716;23.306;2024-03-23T08:33:48;95266.97;;;13.23;57.81
20119;BME280;10220;42.716;23.306;2024-03-23T08:36:13;95256.69;;;12.62;63.44
20119;BME280;10220;42.716;23.306;2024-03-23T08:38:42;95261.94;;;13.57;58.49
20119;BME280;10220;42.716;23.306;2024-03-23T08:41:08;95261.88;;;13.64;54.97
20119;BME280;10220;42.716;23.306;2024-03-23T08:43:38;95254.13;;;13.57;54.72
20119;BME280;10220;42.716;23.306;2024-03-23T08:46:11;95252.41;;;13.99;53.99
20119;BME280;10220;42.716;23.306;2024-03-23T08:48:42;95252.06;;;14.36;53.07
20119;BME280;10220;42.716;23.306;2024-03-23T08:51:14;95219.00;;;14.36;53.95
20119;BME280;10220;42.716;23.306;2024-03-23T08:53:40;95245.00;;;15.34;51.90
20119;BME280;10220;42.716;23.306;2024-03-23T08:56:07;95240.00;;;14.87;51.83
20119;BME280;10220;42.716;23.306;2024-03-23T08:58:33;95234.44;;;15.06;52.29
20119;BME280;10220;42.716;23.306;2024-03-23T09:01:06;95223.31;;;15.33;49.92
20119;BME280;10220;42.716;23.306;2024-03-23T09:03:31;95223.41;;;15.38;50.75
20119;BME280;10220;42.716;23.306;2024-03-23T09:05:57;95217.88;;;15.12;50.40
20119;BME280;10220;42.716;23.306;2024-03-23T09:08:24;95217.97;;;15.06;50.67
20119;BME280;10220;42.716;23.306;2024-03-23T09:10:49;95214.25;;;15.64;51.17
20119;BME280;10220;42.716;23.306;2024-03-23T09:13:15;95186.69;;;15.56;52.08
20119;BME280;10220;42.716;23.306;2024-03-23T09:15:51;95190.06;;;16.12;48.90
20119;BME280;10220;42.716;23.306;2024-03-23T09:18:21;95192.97;;;15.99;49.56
20119;BME280;10220;42.716;23.306;2024-03-23T09:20:47;95194.88;;;16.04;49.91
20119;BME280;10220;42.716;23.306;2024-03-23T09:23:12;95193.59;;;16.34;51.26
20119;BME280;10220;42.716;23.306;2024-03-23T09:25:38;95174.81;;;16.53;47.19
20119;BME280;10220;42.716;23.306;2024-03-23T09:28:07;95151.66;;;15.69;47.73
20119;BME280;10220;42.716;23.306;2024-03-23T09:30:36;95190.66;;;13.99;52.03
20119;BME280;10220;42.716;23.306;2024-03-23T09:33:07;95178.88;;;14.83;52.95
20119;BME280;10220;42.716;23.306;2024-03-23T09:35:39;95173.31;;;14.68;50.63
20119;BME280;10220;42.716;23.306;2024-03-23T09:38:05;95169.06;;;15.24;51.36
20119;BME280;10220;42.716;23.306;2024-03-23T09:40:32;95171.16;;;14.31;53.66
20119;BME280;10220;42.716;23.306;2024-03-23T09:42:58;95164.03;;;14.72;52.85
20119;BME280;10220;42.716;23.306;2024-03-23T09:45:28;95154.91;;;15.20;50.71
20119;BME280;10220;42.716;23.306;2024-03-23T09:47:57;95149.88;;;15.19;50.69
20119;BME280;10220;42.716;23.306;2024-03-23T09:50:23;95123.38;;;15.49;49.01
20119;BME280;10220;42.716;23.306;2024-03-23T09:52:48;95137.78;;;15.96;48.68
20119;BME280;10220;42.716;23.306;2024-03-23T09:55:15;95138.81;;;16.11;47.54
20119;BME280;10220;42.716;23.306;2024-03-23T09:57:41;95115.69;;;16.90;48.15
20119;BME280;10220;42.716;23.306;2024-03-23T10:00:07;95119.47;;;17.42;46.14
20119;BME280;10220;42.716;23.306;2024-03-23T10:02:34;95120.25;;;17.21;46.13
20119;BME280;10220;42.716;23.306;2024-03-23T10:05:00;95118.06;;;17.82;45.65
20119;BME280;10220;42.716;23.306;2024-03-23T10:07:26;95119.47;;;17.94;44.96
20119;BME280;10220;42.716;23.306;2024-03-23T10:09:54;95109.06;;;18.30;45.19
20119;BME280;10220;42.716;23.306;2024-03-23T10:12:20;95100.66;;;19.16;43.59
20119;BME280;10220;42.716;23.306;2024-03-23T10:14:45;95091.25;;;19.25;42.20
20119;BME280;10220;42.716;23.306;2024-03-23T10:17:16;95094.72;;;18.43;43.00
20119;BME280;10220;42.716;23.306;2024-03-23T10:19:46;95095.22;;;18.81;41.99
20119;BME280;10220;42.716;23.306;2024-03-23T10:22:15;95099.16;;;18.37;41.88
20119;BME280;10220;42.716;23.306;2024-03-23T10:24:41;95095.06;;;18.20;42.36
20119;BME280;10220;42.716;23.306;2024-03-23T10:27:07;95076.53;;;17.21;44.38
20119;BME280;10220;42.716;23.306;2024-03-23T10:29:33;95072.69;;;18.44;43.97
20119;BME280;10220;42.716;23.306;2024-03-23T10:32:09;95075.22;;;18.70;44.03
20119;BME280;10220;42.716;23.306;2024-03-23T10:34:35;95070.69;;;18.66;43.12
20119;BME280;10220;42.716;23.306;2024-03-23T10:37:02;95068.34;;;19.10;41.82
20119;BME280;10220;42.716;23.306;2024-03-23T10:39:31;95055.06;;;18.85;40.78
20119;BME280;10220;42.716;23.306;2024-03-23T10:41:58;95055.25;;;18.69;41.69
20119;BME280;10220;42.716;23.306;2024-03-23T10:44:25;95054.59;;;18.11;41.33
20119;BME280;10220;42.716;23.306;2024-03-23T10:46:54;95051.00;;;18.17;41.67
20119;BME280;10220;42.716;23.306;2024-03-23T10:49:25;95043.84;;;18.13;42.46
20119;BME280;10220;42.716;23.306;2024-03-23T10:51:52;95025.44;;;18.03;42.83
20119;BME280;10220;42.716;23.306;2024-03-23T10:54:18;95035.00;;;17.87;41.73
20119;BME280;10220;42.716;23.306;2024-03-23T10:56:46;95026.03;;;18.15;41.57
20119;BME280;10220;42.716;23.306;2024-03-23T10:59:14;95018.50;;;18.18;41.50
20119;BME280;10220;42.716;23.306;2024-03-23T11:01:57;94988.53;;;18.14;43.08
20119;BME280;10220;42.716;23.306;2024-03-23T11:04:36;95000.75;;;18.40;42.07
20119;BME280;10220;42.716;23.306;2024-03-23T11:09:49;94986.38;;;19.13;40.71
20119;BME280;10220;42.716;23.306;2024-03-23T11:15:03;94969.75;;;18.98;40.27
20119;BME280;10220;42.716;23.306;2024-03-23T11:17:29;94966.19;;;19.39;40.92
20119;BME280;10220;42.716;23.306;2024-03-23T11:20:06;94947.66;;;18.74;39.04
20119;BME280;10220;42.716;23.306;2024-03-23T11:22:47;94961.56;;;18.75;38.32
20119;BME280;10220;42.716;23.306;2024-03-23T11:25:20;94961.97;;;18.06;39.83
20119;BME280;10220;42.716;23.306;2024-03-23T11:28:15;94954.94;;;18.67;39.50
20119;BME280;10220;42.716;23.306;2024-03-23T11:30:58;94931.47;;;18.31;38.97
20119;BME280;10220;42.716;23.306;2024-03-23T11:33:44;94926.50;;;18.34;38.81
20119;BME280;10220;42.716;23.306;2024-03-23T11:36:47;94908.03;;;17.73;40.43
20119;BME280;10220;42.716;23.306;2024-03-23T11:39:18;94937.09;;;18.54;41.86
20119;BME280;10220;42.716;23.306;2024-03-23T11:41:56;94924.19;;;18.43;39.65
20119;BME280;10220;42.716;23.306;2024-03-23T11:44:40;94885.91;;;18.62;38.16
20119;BME280;10220;42.716;23.306;2024-03-23T11:47:09;94916.13;;;18.69;38.67
20119;BME280;10220;42.716;23.306;2024-03-23T11:49:36;94875.88;;;18.39;38.68
20119;BME280;10220;42.716;23.306;2024-03-23T11:52:12;94905.41;;;18.85;38.31
20119;BME280;10220;42.716;23.306;2024-03-23T11:54:37;94895.19;;;19.04;38.08
20119;BME280;10220;42.716;23.306;2024-03-23T11:57:08;94864.50;;;19.09;37.70
20119;BME280;10220;42.716;23.306;2024-03-23T11:59:38;94881.13;;;18.39;38.22
20119;BME280;10220;42.716;23.306;2024-03-23T12:02:10;94885.91;;;18.57;38.49
20119;BME280;10220;42.716;23.306;2024-03-23T12:04:39;94870.47;;;18.75;37.76
20119;BME280;10220;42.716;23.306;2024-03-23T12:07:19;94865.50;;;18.88;38.26
20119;BME280;10220;42.716;23.306;2024-03-23T12:10:06;94844.41;;;18.39;39.54
20119;BME280;10220;42.716;23.306;2024-03-23T12:12:32;94869.06;;;18.38;39.57
20119;BME280;10220;42.716;23.306;2024-03-23T12:15:04;94864.06;;;18.36;39.01
20119;BME280;10220;42.716;23.306;2024-03-23T12:17:38;94838.94;;;18.65;39.02
20119;BME280;10220;42.716;23.306;2024-03-23T12:20:07;94862.34;;;18.96;38.83
20119;BME280;10220;42.716;23.306;2024-03-23T12:22:38;94854.47;;;18.82;38.15
20119;BME280;10220;42.716;23.306;2024-03-23T12:25:07;94818.47;;;18.57;38.39
20119;BME280;10220;42.716;23.306;2024-03-23T12:27:33;94818.44;;;18.42;38.50
20119;BME280;10220;42.716;23.306;2024-03-23T12:29:59;94830.81;;;18.62;37.79
20119;BME280;10220;42.716;23.306;2024-03-23T12:32:35;94836.09;;;18.77;38.94
20119;BME280;10220;42.716;23.306;2024-03-23T12:35:04;94829.53;;;18.94;39.37
20119;BME280;10220;42.716;23.306;2024-03-23T12:37:32;94806.44;;;19.16;37.84
20119;BME280;10220;42.716;23.306;2024-03-23T12:39:58;94804.28;;;19.47;37.23
20119;BME280;10220;42.716;23.306;2024-03-23T12:42:26;94824.53;;;19.42;37.35
20119;BME280;10220;42.716;23.306;2024-03-23T12:44:51;94806.19;;;19.12;37.66
20119;BME280;10220;42.716;23.306;2024-03-23T12:47:17;94796.44;;;19.18;37.96
20119;BME280;10220;42.716;23.306;2024-03-23T12:49:43;94816.66;;;19.37;36.03
20119;BME280;10220;42.716;23.306;2024-03-23T12:52:08;94801.16;;;19.01;36.55
20119;BME280;10220;42.716;23.306;2024-03-23T12:54:34;94811.94;;;18.99;35.14
20119;BME280;10220;42.716;23.306;2024-03-23T12:56:59;94790.13;;;18.94;34.22
20119;BME280;10220;42.716;23.306;2024-03-23T12:59:25;94793.56;;;18.80;32.59
20119;BME280;10220;42.716;23.306;2024-03-23T13:01:50;94779.91;;;19.02;31.95
20119;BME280;10220;42.716;23.306;2024-03-23T13:04:16;94765.72;;;19.13;32.14
20119;BME280;10220;42.716;23.306;2024-03-23T13:06:41;94781.44;;;19.38;32.65
20119;BME280;10220;42.716;23.306;2024-03-23T13:09:07;94774.66;;;19.07;31.66
20119;BME280;10220;42.716;23.306;2024-03-23T13:11:32;94767.81;;;18.96;31.91
20119;BME280;10220;42.716;23.306;2024-03-23T13:13:58;94780.72;;;18.88;32.60
20119;BME280;10220;42.716;23.306;2024-03-23T13:16:23;94778.34;;;19.06;32.56
20119;BME280;10220;42.716;23.306;2024-03-23T13:18:49;94766.53;;;18.74;31.72
20119;BME280;10220;42.716;23.306;2024-03-23T13:21:15;94764.94;;;18.78;32.75
20119;BME280;10220;42.716;23.306;2024-03-23T13:23:41;94759.97;;;18.77;32.11
20119;BME280;10220;42.716;23.306;2024-03-23T13:26:08;94757.06;;;18.93;33.51
20119;BME280;10220;42.716;23.306;2024-03-23T13:28:33;94760.22;;;18.85;33.57
20119;BME280;10220;42.716;23.306;2024-03-23T13:30:59;94747.88;;;18.51;32.41
20119;BME280;10220;42.716;23.306;2024-03-23T13:33:28;94748.41;;;18.68;33.34
20119;BME280;10220;42.716;23.306;2024-03-23T13:35:55;94740.00;;;18.71;32.87
20119;BME280;10220;42.716;23.306;2024-03-23T13:38:21;94732.38;;;18.89;32.91
20119;BME280;10220;42.716;23.306;2024-03-23T13:40:55;94719.50;;;18.83;32.07
20119;BME280;10220;42.716;23.306;2024-03-23T13:43:22;94719.25;;;18.94;32.00
20119;BME280;10220;42.716;23.306;2024-03-23T13:45:51;94739.97;;;18.95;31.58
20119;BME280;10220;42.716;23.306;2024-03-23T13:48:22;94719.50;;;18.83;32.07
20119;BME280;10220;42.716;23.306;2024-03-23T13:50:57;94713.25;;;18.69;32.49